Time;durP1;ratioP1;P1;durP2;ratioP2;P2;SDS_P1;SDS_P2;PMS_P1;PMS_P2;Temp;Humidity;BMP_temperature;BMP_pressure;BME280_temperature;BME280_humidity;BME280_pressure;Samples;Min_cycle;Max_cycle;Signal;HPM_P1;HPM_P2
2022/10/28 00:00:55;;;;;;;8.75;4.13;;;;;;;11.17;nan;-24129.03;5093527;28;20180;-74
2022/10/28 00:03:21;;;;;;;10.07;4.45;;;;;;;11.16;nan;-24128.63;5093644;28;20223;-75
2022/10/28 00:05:47;;;;;;;9.07;4.10;;;;;;;11.05;nan;-24125.66;5093056;28;20170;-74
2022/10/28 00:08:12;;;;;;;11.85;4.30;;;;;;;11.30;nan;-24132.56;5093202;28;20665;-76
2022/10/28 00:10:38;;;;;;;11.27;4.65;;;;;;;10.98;nan;-24123.69;5093142;28;20177;-76
2022/10/28 00:13:03;;;;;;;6.40;4.05;;;;;;;10.95;nan;-24123.00;5091840;28;20181;-75
2022/10/28 00:15:29;;;;;;;8.70;4.03;;;;;;;10.68;nan;-24115.38;5091848;28;20628;-75
2022/10/28 00:17:54;;;;;;;6.60;3.87;;;;;;;10.64;nan;-24114.25;5093267;28;20246;-74
2022/10/28 00:20:19;;;;;;;7.00;3.70;;;;;;;10.20;nan;-24101.97;5091534;28;20632;-75
2022/10/28 00:22:45;;;;;;;8.77;4.53;;;;;;;9.65;nan;-24086.72;5093232;28;20169;-75
2022/10/28 00:25:10;;;;;;;10.47;4.40;;;;;;;9.32;nan;-24077.53;5093010;28;20217;-75
2022/10/28 00:27:36;;;;;;;8.03;4.40;;;;;;;9.43;nan;-24080.50;5092762;28;20173;-73
2022/10/28 00:30:02;;;;;;;6.10;3.83;;;;;;;9.82;nan;-24091.38;5092910;28;20255;-74
2022/10/28 00:32:28;;;;;;;9.20;4.40;;;;;;;10.04;nan;-24097.44;5093035;28;20620;-74
2022/10/28 00:34:54;;;;;;;8.30;4.10;;;;;;;9.82;nan;-24091.38;5091957;28;20185;-74
2022/10/28 00:37:19;;;;;;;7.87;4.27;;;;;;;10.06;nan;-24098.16;5082852;28;20649;-73
2022/10/28 00:39:45;;;;;;;7.63;4.43;;;;;;;10.21;nan;-24102.25;5084136;28;20264;-73
2022/10/28 00:42:11;;;;;;;11.80;4.40;;;;;;;9.86;nan;-24092.34;5092620;28;20673;-73
2022/10/28 00:44:57;;;;;;;9.13;4.67;;;;;;;10.10;nan;-24099.13;5075705;28;20617;-74
2022/10/28 00:47:37;;;;;;;6.07;4.00;;;;;;;10.22;nan;-24102.53;5071969;28;20664;-75
2022/10/28 00:50:14;;;;;;;15.60;4.83;;;;;;;10.23;nan;-24102.66;5072407;28;20216;-72
2022/10/28 00:52:44;;;;;;;5.30;3.77;;;;;;;10.14;nan;-24100.41;5072938;28;20178;-73
2022/10/28 00:55:11;;;;;;;8.60;4.17;;;;;;;10.05;nan;-24097.88;5071138;28;20364;-73
2022/10/28 00:57:40;;;;;;;6.20;3.67;;;;;;;9.66;nan;-24086.97;5072335;28;20181;-76
2022/10/28 01:00:06;;;;;;;10.03;4.23;;;;;;;9.74;nan;-24089.25;5072607;28;20174;-76
2022/10/28 01:02:38;;;;;;;6.27;3.67;;;;;;;9.66;nan;-24086.84;5072049;28;20182;-74
2022/10/28 01:05:03;;;;;;;6.57;3.90;;;;;;;9.92;nan;-24094.06;5072330;28;20173;-76
2022/10/28 01:07:29;;;;;;;10.90;4.23;;;;;;;9.89;nan;-24093.22;5072039;28;20558;-73
2022/10/28 01:09:55;;;;;;;5.57;3.43;;;;;;;9.72;nan;-24088.69;5070859;28;20214;-74
2022/10/28 01:12:32;;;;;;;8.77;4.03;;;;;;;9.82;nan;-24091.38;5071718;28;20174;-73
2022/10/28 01:15:18;;;;;;;5.83;3.57;;;;;;;9.81;nan;-24090.94;5072199;28;20267;-75
2022/10/28 01:18:03;;;;;;;6.63;3.87;;;;;;;9.11;nan;-24071.59;5072380;28;20174;-73
2022/10/28 01:21:02;;;;;;;5.80;4.10;;;;;;;9.57;nan;-24084.44;5072252;28;20625;-75
2022/10/28 01:23:36;;;;;;;11.53;4.27;;;;;;;9.58;nan;-24084.72;5072579;28;20265;-75
2022/10/28 01:26:39;;;;;;;6.40;3.97;;;;;;;9.51;nan;-24082.75;5071728;28;20301;-76
2022/10/28 01:29:38;;;;;;;7.20;4.83;;;;;;;9.43;nan;-24080.34;5071691;28;20560;-74
2022/10/28 01:32:29;;;;;;;8.63;4.43;;;;;;;9.45;nan;-24081.06;5072023;28;20174;-73
2022/10/28 01:35:21;;;;;;;8.23;4.03;;;;;;;9.44;nan;-24080.78;5068829;28;20186;-75
2022/10/28 01:38:07;;;;;;;14.30;4.60;;;;;;;9.45;nan;-24080.91;5070625;28;20170;-73
2022/10/28 01:40:51;;;;;;;6.33;3.90;;;;;;;9.27;nan;-24075.97;5070466;28;20268;-73
2022/10/28 01:43:35;;;;;;;7.77;3.97;;;;;;;9.29;nan;-24076.53;5071830;28;20170;-73
2022/10/28 01:46:07;;;;;;;8.47;4.27;;;;;;;9.00;nan;-24068.34;5070190;28;20174;-74
2022/10/28 01:48:43;;;;;;;7.97;4.23;;;;;;;9.00;nan;-24068.47;5071446;28;20542;-73
2022/10/28 01:51:19;;;;;;;6.10;4.00;;;;;;;8.92;nan;-24066.22;5070508;28;20169;-73
2022/10/28 01:53:48;;;;;;;6.83;4.10;;;;;;;8.81;nan;-24063.25;5072129;28;20658;-73
2022/10/28 01:56:16;;;;;;;6.13;3.63;;;;;;;8.76;nan;-24061.81;5071665;28;20194;-74
2022/10/28 01:58:44;;;;;;;7.07;4.17;;;;;;;8.73;nan;-24060.84;5071485;28;20166;-74
2022/10/28 02:01:11;;;;;;;7.00;4.33;;;;;;;8.87;nan;-24064.78;5071596;28;20178;-73
2022/10/28 02:03:36;;;;;;;8.37;3.73;;;;;;;9.07;nan;-24070.44;5071739;28;20170;-74
2022/10/28 02:06:06;;;;;;;10.50;4.67;;;;;;;8.66;nan;-24059.00;5071546;28;20166;-75
2022/10/28 02:09:00;;;;;;;8.77;4.53;;;;;;;9.03;nan;-24069.19;5073793;28;20196;-74
2022/10/28 02:11:42;;;;;;;7.33;4.00;;;;;;;9.15;nan;-24072.56;5052040;28;20292;-74
2022/10/28 02:14:29;;;;;;;9.17;3.73;;;;;;;8.68;nan;-24059.41;5075862;28;20180;-74
2022/10/28 02:17:09;;;;;;;7.33;4.47;;;;;;;8.84;nan;-24064.09;5075610;28;20226;-74
2022/10/28 02:19:46;;;;;;;11.67;4.40;;;;;;;8.76;nan;-24061.69;5075830;28;20656;-74
2022/10/28 02:22:22;;;;;;;6.67;3.60;;;;;;;8.71;nan;-24060.41;5075517;28;20173;-74
2022/10/28 02:25:15;;;;;;;8.83;4.47;;;;;;;8.80;nan;-24062.81;5073884;28;20248;-74
2022/10/28 02:28:04;;;;;;;8.27;3.87;;;;;;;8.37;nan;-24050.94;5074957;28;20221;-74
2022/10/28 02:30:32;;;;;;;7.80;4.03;;;;;;;8.62;nan;-24057.88;5075190;28;20166;-74
2022/10/28 02:33:02;;;;;;;12.87;4.47;;;;;;;8.53;nan;-24055.31;5075743;28;20182;-75
2022/10/28 02:35:38;;;;;;;6.90;3.83;;;;;;;8.50;nan;-24054.31;5075538;28;20177;-75
2022/10/28 02:38:09;;;;;;;5.63;3.73;;;;;;;8.20;nan;-24045.97;5075210;28;20650;-74
2022/10/28 02:40:37;;;;;;;7.90;4.10;;;;;;;8.50;nan;-24054.31;5075369;28;20185;-75
2022/10/28 02:43:07;;;;;;;9.50;4.70;;;;;;;8.53;nan;-24055.31;5074039;28;20178;-75
2022/10/28 02:45:48;;;;;;;6.70;4.70;;;;;;;8.51;nan;-24054.75;5073542;28;20192;-75
2022/10/28 02:48:20;;;;;;;5.87;3.73;;;;;;;8.13;nan;-24044.00;5075012;28;20559;-74
2022/10/28 02:50:52;;;;;;;6.03;3.80;;;;;;;8.03;nan;-24041.28;5074933;28;20179;-75
2022/10/28 02:53:22;;;;;;;7.87;4.67;;;;;;;8.45;nan;-24053.06;5074873;28;20661;-73
2022/10/28 02:55:53;;;;;;;7.20;4.40;;;;;;;8.36;nan;-24050.50;5085936;28;20185;-75
2022/10/28 02:58:18;;;;;;;8.10;4.27;;;;;;;8.13;nan;-24044.13;5088701;28;20201;-74
2022/10/28 03:00:45;;;;;;;8.73;4.87;;;;;;;8.27;nan;-24047.94;5093273;28;20177;-74
2022/10/28 03:03:11;;;;;;;8.60;4.50;;;;;;;8.57;nan;-24056.31;5094038;28;20655;-74
2022/10/28 03:05:36;;;;;;;8.03;3.90;;;;;;;8.24;nan;-24047.09;5093043;28;20185;-73
2022/10/28 03:08:02;;;;;;;8.77;5.17;;;;;;;8.19;nan;-24045.69;5094221;28;20197;-74
2022/10/28 03:10:27;;;;;;;5.73;4.00;;;;;;;8.34;nan;-24050.06;5095092;28;20177;-75
2022/10/28 03:12:53;;;;;;;8.10;4.63;;;;;;;8.53;nan;-24055.31;5093225;28;20184;-75
2022/10/28 03:15:18;;;;;;;6.37;4.10;;;;;;;8.36;nan;-24050.66;5090747;28;20185;-74
2022/10/28 03:17:44;;;;;;;10.00;4.70;;;;;;;7.91;nan;-24037.88;5092413;28;20245;-75
2022/10/28 03:20:10;;;;;;;8.80;4.40;;;;;;;8.09;nan;-24042.84;5085148;28;20541;-74
2022/10/28 03:22:35;;;;;;;7.63;4.67;;;;;;;8.45;nan;-24052.91;5091362;28;20503;-73
2022/10/28 03:25:01;;;;;;;5.83;3.77;;;;;;;8.37;nan;-24050.78;5087447;28;20240;-74
2022/10/28 03:27:26;;;;;;;7.33;3.97;;;;;;;8.43;nan;-24052.47;5092979;28;21130;-73
2022/10/28 03:29:52;;;;;;;8.37;4.30;;;;;;;8.21;nan;-24046.25;5092152;28;20205;-73
2022/10/28 03:32:17;;;;;;;13.10;4.53;;;;;;;8.21;nan;-24046.25;5089203;28;20185;-73
2022/10/28 03:34:43;;;;;;;8.37;4.30;;;;;;;8.41;nan;-24052.06;5083956;28;20188;-74
2022/10/28 03:37:08;;;;;;;9.90;4.50;;;;;;;7.83;nan;-24035.78;5085396;28;20177;-74
2022/10/28 03:39:34;;;;;;;9.80;4.50;;;;;;;8.18;nan;-24045.53;5085760;28;20613;-75
2022/10/28 03:41:59;;;;;;;8.43;4.27;;;;;;;8.36;nan;-24050.50;5083902;28;20215;-73
2022/10/28 03:44:24;;;;;;;11.83;3.70;;;;;;;8.37;nan;-24050.78;5084797;28;20569;-74
2022/10/28 03:46:50;;;;;;;6.00;3.80;;;;;;;8.35;nan;-24050.22;5086763;28;20239;-73
2022/10/28 03:49:16;;;;;;;6.67;4.07;;;;;;;8.30;nan;-24048.81;5085988;28;20676;-74
2022/10/28 03:51:42;;;;;;;7.40;4.70;;;;;;;8.06;nan;-24042.00;5082765;28;20266;-75
2022/10/28 03:54:07;;;;;;;6.37;4.40;;;;;;;8.21;nan;-24046.41;5086191;28;20635;-73
2022/10/28 03:56:32;;;;;;;7.23;4.20;;;;;;;7.93;nan;-24038.59;5086140;28;20174;-74
2022/10/28 03:58:58;;;;;;;13.77;5.33;;;;;;;8.17;nan;-24045.25;5083122;28;20188;-75
2022/10/28 04:01:24;;;;;;;9.60;5.20;;;;;;;8.47;nan;-24053.47;5086542;28;20185;-76
2022/10/28 04:03:50;;;;;;;10.10;4.73;;;;;;;8.12;nan;-24043.84;5085903;28;20174;-74
2022/10/28 04:06:15;;;;;;;8.23;4.90;;;;;;;8.18;nan;-24045.41;5084046;28;20267;-74
2022/10/28 04:08:41;;;;;;;9.87;4.73;;;;;;;8.25;nan;-24047.53;5085338;28;20197;-74
2022/10/28 04:11:07;;;;;;;7.50;4.40;;;;;;;8.35;nan;-24050.38;5085373;28;20672;-75
2022/10/28 04:13:32;;;;;;;11.13;5.27;;;;;;;8.45;nan;-24053.06;5082641;28;20177;-74
2022/10/28 04:15:58;;;;;;;7.80;4.10;;;;;;;8.13;nan;-24044.00;5084938;28;20189;-75
2022/10/28 04:18:23;;;;;;;10.63;4.47;;;;;;;8.34;nan;-24050.06;5084974;28;20181;-77
2022/10/28 04:20:49;;;;;;;6.20;3.90;;;;;;;8.30;nan;-24048.81;5084588;28;20642;-75
2022/10/28 04:23:17;;;;;;;8.03;4.47;;;;;;;7.98;nan;-24039.88;5081854;28;20632;-75
2022/10/28 04:25:44;;;;;;;6.90;3.63;;;;;;;8.30;nan;-24048.94;5083300;28;20217;-73
2022/10/28 04:28:10;;;;;;;6.03;4.33;;;;;;;7.96;nan;-24039.31;5083921;28;20235;-74
2022/10/28 04:30:35;;;;;;;7.30;4.10;;;;;;;7.98;nan;-24040.03;5083359;28;20182;-74
2022/10/28 04:33:01;;;;;;;8.27;4.90;;;;;;;7.85;nan;-24036.34;5084908;28;20174;-73
2022/10/28 04:35:26;;;;;;;7.67;4.63;;;;;;;8.04;nan;-24041.56;5085586;28;20189;-74
2022/10/28 04:37:52;;;;;;;8.57;4.17;;;;;;;8.06;nan;-24042.00;5084410;28;20228;-75
2022/10/28 04:40:17;;;;;;;8.73;4.57;;;;;;;8.29;nan;-24048.50;5083856;28;20268;-74
2022/10/28 04:42:43;;;;;;;8.83;5.07;;;;;;;8.22;nan;-24046.53;5085823;28;20177;-74
2022/10/28 04:45:08;;;;;;;10.07;4.87;;;;;;;8.14;nan;-24044.28;5083954;28;20174;-74
2022/10/28 04:47:34;;;;;;;9.17;4.63;;;;;;;8.26;nan;-24047.81;5085064;28;20196;-74
2022/10/28 04:49:59;;;;;;;6.90;4.07;;;;;;;8.32;nan;-24049.38;5085418;28;20213;-75
2022/10/28 04:52:25;;;;;;;10.03;4.50;;;;;;;8.01;nan;-24040.72;5085806;28;20293;-73
2022/10/28 04:54:50;;;;;;;10.30;5.00;;;;;;;8.10;nan;-24043.13;5084596;28;20581;-73
2022/10/28 04:57:16;;;;;;;7.00;4.33;;;;;;;8.32;nan;-24049.38;5084719;28;20259;-75
2022/10/28 04:59:41;;;;;;;9.13;4.97;;;;;;;8.43;nan;-24052.63;5086134;28;20181;-78
2022/10/28 05:02:06;;;;;;;7.40;4.07;;;;;;;8.45;nan;-24053.06;5086678;28;20181;-78
2022/10/28 05:04:32;;;;;;;8.07;4.10;;;;;;;7.60;nan;-24029.25;5085560;28;20181;-80
2022/10/28 05:06:57;;;;;;;7.57;4.07;;;;;;;7.58;nan;-24028.53;5086797;28;20204;-80
2022/10/28 05:09:23;;;;;;;10.17;4.63;;;;;;;8.46;nan;-24053.34;5086145;28;20216;-80
2022/10/28 05:11:48;;;;;;;6.70;4.10;;;;;;;4.94;nan;-23954.56;5085170;28;20670;-79
2022/10/28 05:14:14;;;;;;;8.03;4.20;;;;;;;8.63;nan;-24058.16;5084819;28;20185;-81
2022/10/28 05:16:39;;;;;;;7.30;4.30;;;;;;;8.73;nan;-24060.84;5084162;28;20278;-77
2022/10/28 05:19:05;;;;;;;9.83;5.07;;;;;;;8.62;nan;-24057.88;5083350;28;20193;-75
2022/10/28 05:21:30;;;;;;;8.93;4.60;;;;;;;8.80;nan;-24062.81;5078061;28;20252;-75
2022/10/28 05:23:56;;;;;;;12.00;5.73;;;;;;;9.00;nan;-24068.34;5083537;28;20193;-75
2022/10/28 05:26:21;;;;;;;11.63;5.43;;;;;;;8.65;nan;-24058.72;5081674;28;20716;-73
2022/10/28 05:28:50;;;;;;;7.80;4.37;;;;;;;9.16;nan;-24072.84;5083130;28;20297;-75
2022/10/28 05:31:16;;;;;;;6.97;4.23;;;;;;;8.23;nan;-24046.81;5084163;28;20632;-77
2022/10/28 05:33:42;;;;;;;5.10;3.77;;;;;;;9.10;nan;-24071.31;5083265;28;20254;-75
2022/10/28 05:36:07;;;;;;;6.27;3.97;;;;;;;9.13;nan;-24072.00;5083484;28;20708;-74
2022/10/28 05:38:33;;;;;;;12.43;4.77;;;;;;;9.46;nan;-24081.34;5090703;28;20192;-74
2022/10/28 05:40:58;;;;;;;6.13;3.83;;;;;;;9.54;nan;-24083.59;5086475;28;20182;-73
2022/10/28 05:43:24;;;;;;;9.00;4.40;;;;;;;9.52;nan;-24083.03;5068978;28;20182;-75
2022/10/28 05:45:56;;;;;;;6.87;4.40;;;;;;;9.59;nan;-24085.00;5081699;28;20200;-76
2022/10/28 05:48:23;;;;;;;6.87;4.20;;;;;;;9.78;nan;-24090.25;5090037;28;20628;-76
2022/10/28 05:50:49;;;;;;;7.10;3.90;;;;;;;9.78;nan;-24090.25;5091572;28;20190;-77
2022/10/28 05:53:14;;;;;;;5.47;3.80;;;;;;;9.60;nan;-24085.28;5091743;28;20317;-76
2022/10/28 05:55:40;;;;;;;8.40;4.37;;;;;;;9.81;nan;-24090.94;5091462;28;20650;-75
2022/10/28 05:58:05;;;;;;;5.70;3.77;;;;;;;10.01;nan;-24096.72;5090318;28;20562;-74
2022/10/28 06:00:31;;;;;;;7.30;4.00;;;;;;;10.08;nan;-24098.56;5089880;28;20181;-73
2022/10/28 06:03:08;;;;;;;6.17;3.73;;;;;;;10.18;nan;-24101.41;5090020;28;20181;-74
2022/10/28 06:05:34;;;;;;;7.47;4.20;;;;;;;10.08;nan;-24098.72;5090929;28;20161;-75
2022/10/28 06:07:59;;;;;;;8.10;4.87;;;;;;;10.33;nan;-24105.63;5091347;28;20177;-76
2022/10/28 06:10:25;;;;;;;5.63;4.07;;;;;;;10.66;nan;-24114.81;5086634;28;20184;-79
2022/10/28 06:12:50;;;;;;;7.63;4.30;;;;;;;10.71;nan;-24116.22;5069740;28;20182;-76
2022/10/28 06:15:16;;;;;;;8.70;3.83;;;;;;;10.68;nan;-24115.38;5071020;28;20637;-77
2022/10/28 06:17:41;;;;;;;6.27;3.90;;;;;;;10.79;nan;-24118.47;5069648;28;20261;-76
2022/10/28 06:20:07;;;;;;;5.70;3.93;;;;;;;10.73;nan;-24116.78;5081963;28;20173;-77
2022/10/28 06:22:33;;;;;;;6.43;3.50;;;;;;;10.97;nan;-24123.41;5091658;28;20211;-77
2022/10/28 06:24:58;;;;;;;5.37;3.40;;;;;;;11.00;nan;-24124.41;5089677;28;20274;-76
2022/10/28 06:27:23;;;;;;;7.93;4.00;;;;;;;11.00;nan;-24124.41;5090052;28;20818;-76
2022/10/28 06:29:49;;;;;;;8.00;4.03;;;;;;;6.46;nan;-23997.19;5090132;28;20205;-77
2022/10/28 06:32:14;;;;;;;5.25;3.78;;;;;;;11.48;nan;-24137.78;5090093;28;20637;-76
2022/10/28 06:34:40;;;;;;;7.38;3.70;;;;;;;11.52;nan;-24138.91;5090923;28;20281;-77
2022/10/28 06:37:09;;;;;;;6.47;3.63;;;;;;;11.50;nan;-24138.22;5090057;28;20188;-76
2022/10/28 06:39:36;;;;;;;7.38;3.97;;;;;;;11.43;nan;-24136.22;5090859;28;20165;-75
2022/10/28 06:42:02;;;;;;;6.82;3.67;;;;;;;11.63;nan;-24141.88;5089647;28;20173;-74
2022/10/28 06:44:27;;;;;;;8.85;3.83;;;;;;;12.00;nan;-24152.00;5089533;28;20177;-73
2022/10/28 06:46:53;;;;;;;5.70;3.45;;;;;;;12.08;nan;-24154.25;5090780;28;20691;-76
2022/10/28 06:49:18;;;;;;;6.75;3.92;;;;;;;12.24;nan;-24158.78;5090808;28;20246;-75
2022/10/28 06:51:43;;;;;;;5.68;3.40;;;;;;;12.53;nan;-24166.94;5091337;28;20177;-74
2022/10/28 06:54:09;;;;;;;4.22;3.10;;;;;;;12.45;nan;-24164.53;5091907;28;20245;-74
2022/10/28 06:56:34;;;;;;;6.30;3.40;;;;;;;12.48;nan;-24165.38;5093826;28;20173;-74
2022/10/28 06:58:59;;;;;;;4.90;3.03;;;;;;;12.69;nan;-24171.44;5093337;28;20744;-75
2022/10/28 07:01:25;;;;;;;6.18;3.72;;;;;;;12.91;nan;-24177.34;5094588;28;20177;-75
2022/10/28 07:03:50;;;;;;;10.57;3.70;;;;;;;13.00;nan;-24180.00;5093222;28;20173;-75
2022/10/28 07:06:16;;;;;;;7.10;4.32;;;;;;;13.00;nan;-24180.00;5094451;28;20177;-76
2022/10/28 07:08:41;;;;;;;9.23;4.50;;;;;;;13.15;nan;-24184.22;5092903;28;20285;-76
2022/10/28 07:11:07;;;;;;;8.77;4.13;;;;;;;13.41;nan;-24191.38;5093444;28;20220;-75
2022/10/28 07:13:33;;;;;;;6.60;4.10;;;;;;;13.41;nan;-24191.38;5073260;28;20516;-74
2022/10/28 07:15:59;;;;;;;12.35;5.32;;;;;;;13.89;nan;-24204.72;5074284;28;20190;-75
2022/10/28 07:18:27;;;;;;;6.28;3.92;;;;;;;13.89;nan;-24204.72;5074724;28;20597;-72
2022/10/28 07:20:53;;;;;;;7.43;3.92;;;;;;;13.97;nan;-24206.97;5074429;28;20264;-74
2022/10/28 07:23:19;;;;;;;6.07;3.38;;;;;;;14.02;nan;-24208.38;5072405;28;20185;-73
2022/10/28 07:25:51;;;;;;;6.68;3.47;;;;;;;14.23;nan;-24214.13;5073920;28;20222;-74
2022/10/28 07:28:17;;;;;;;6.50;3.63;;;;;;;13.73;nan;-24200.25;5073943;28;20254;-73
2022/10/28 07:30:42;;;;;;;4.97;2.95;;;;;;;13.73;nan;-24200.25;5073747;28;20344;-73
2022/10/28 07:33:07;;;;;;;6.47;3.30;;;;;;;14.59;nan;-24224.09;5073431;28;20247;-75
2022/10/28 07:35:33;;;;;;;6.72;3.38;;;;;;;14.49;nan;-24221.44;5073785;28;20178;-75
2022/10/28 07:37:58;;;;;;;7.03;3.20;;;;;;;14.52;nan;-24222.28;5073941;28;20646;-72
2022/10/28 07:40:25;;;;;;;4.90;3.13;;;;;;;14.75;nan;-24228.56;5073572;28;20188;-75
2022/10/28 07:42:50;;;;;;;9.50;3.78;;;;;;;14.90;nan;-24232.78;5072151;28;20170;-74
2022/10/28 07:45:16;;;;;;;6.25;3.33;;;;;;;14.92;nan;-24233.34;5073181;28;20174;-61
2022/10/28 07:47:43;;;;;;;5.93;3.55;;;;;;;15.07;nan;-24237.28;5073629;28;20166;-62
2022/10/28 07:50:09;;;;;;;8.48;3.15;;;;;;;15.43;nan;-24247.34;5073243;28;20206;-65
2022/10/28 07:52:35;;;;;;;5.93;3.55;;;;;;;15.43;nan;-24247.34;5073329;28;20181;-62
2022/10/28 07:55:02;;;;;;;6.65;3.30;;;;;;;15.79;nan;-24257.28;5073357;28;20565;-65
2022/10/28 07:57:28;;;;;;;3.78;2.58;;;;;;;15.87;nan;-24259.53;5073160;28;20162;-64
2022/10/28 07:59:53;;;;;;;4.75;2.67;;;;;;;16.01;nan;-24263.31;5073194;28;20178;-64
2022/10/28 08:02:21;;;;;;;4.07;2.85;;;;;;;16.01;nan;-24263.31;5091498;28;20633;-65
2022/10/28 08:04:47;;;;;;;3.38;2.30;;;;;;;15.97;nan;-24262.19;5074992;28;20189;-61
2022/10/28 08:07:13;;;;;;;5.00;2.80;;;;;;;16.37;nan;-24273.25;5072430;28;20186;-65
2022/10/28 08:09:39;;;;;;;3.95;2.53;;;;;;;16.25;nan;-24270.03;5072996;28;20703;-64
2022/10/28 08:12:06;;;;;;;2.85;2.20;;;;;;;16.45;nan;-24275.47;5073057;28;20223;-65
2022/10/28 08:14:33;;;;;;;4.10;2.40;;;;;;;16.72;nan;-24283.03;5091612;28;20632;-64
2022/10/28 08:16:58;;;;;;;5.00;2.72;;;;;;;16.72;nan;-24283.03;5093206;28;20184;-65
2022/10/28 08:19:23;;;;;;;5.20;2.50;;;;;;;16.82;nan;-24285.81;5093110;28;20535;-65
2022/10/28 08:21:49;;;;;;;3.80;2.67;;;;;;;;;;5093536;28;20264;-63
2022/10/28 08:24:14;;;;;;;5.50;2.60;;;;;;;17.09;nan;-24293.34;5092812;28;20223;-61
2022/10/28 08:26:40;;;;;;;4.65;2.63;;;;;;;17.15;nan;-24294.91;5093301;28;20247;-63
2022/10/28 08:29:05;;;;;;;3.75;2.60;;;;;;;;;;5093186;28;20193;-63
2022/10/28 08:31:32;;;;;;;4.10;2.50;;;;;;;17.20;nan;-24296.44;5092957;28;20228;-66
2022/10/28 08:33:57;;;;;;;4.97;2.60;;;;;;;17.52;nan;-24305.22;5092090;28;20316;-64
2022/10/28 08:36:23;;;;;;;14.73;2.80;;;;;;;14.97;nan;-24234.75;5093116;28;20244;-65
2022/10/28 08:38:48;;;;;;;5.47;2.25;;;;;;;17.72;nan;-24310.53;5093410;28;20169;-65
2022/10/28 08:41:19;;;;;;;2.90;2.30;;;;;;;18.01;nan;-24318.75;5093358;28;20157;-64
2022/10/28 08:44:23;;;;;;;5.10;2.67;;;;;;;18.14;nan;-24322.25;5093221;28;20170;-64
2022/10/28 08:47:12;;;;;;;4.93;2.30;;;;;;;18.24;nan;-24324.88;5093180;28;20235;-68
2022/10/28 08:49:40;;;;;;;4.28;2.40;;;;;;;17.99;nan;-24318.19;5092882;28;20704;-67
2022/10/28 08:52:24;;;;;;;4.65;2.40;;;;;;;18.54;nan;-24333.38;5092925;28;20181;-64
2022/10/28 08:55:05;;;;;;;8.13;2.33;;;;;;;18.07;nan;-24320.28;5092815;28;20165;-62
2022/10/28 08:57:37;;;;;;;4.63;2.45;;;;;;;18.45;nan;-24330.88;5093311;28;20172;-64
2022/10/28 09:00:06;;;;;;;3.33;2.13;;;;;;;18.35;nan;-24328.09;5093280;28;20278;-66
2022/10/28 09:02:52;;;;;;;2.53;1.98;;;;;;;18.79;nan;-24340.06;5092831;28;20166;-61
2022/10/28 09:05:23;;;;;;;5.60;2.70;;;;;;;15.75;nan;-24256.19;5084765;28;20208;-65
2022/10/28 09:07:49;;;;;;;3.60;2.20;;;;;;;18.82;nan;-24340.91;5092829;28;20628;-65
2022/10/28 09:10:17;;;;;;;3.17;2.20;;;;;;;19.01;nan;-24346.19;5092908;28;20686;-64
2022/10/28 09:12:45;;;;;;;4.03;2.63;;;;;;;18.69;nan;-24337.28;5093156;28;20166;-63
2022/10/28 09:15:10;;;;;;;3.10;2.30;;;;;;;18.95;nan;-24344.53;5092882;28;20219;-64
2022/10/28 09:18:03;;;;;;;4.78;2.42;;;;;;;19.06;nan;-24347.59;5092498;28;20162;-64
2022/10/28 09:20:38;;;;;;;4.05;2.47;;;;;;;19.37;nan;-24356.06;5091566;28;20177;-64
2022/10/28 09:23:28;;;;;;;4.20;2.53;;;;;;;19.39;nan;-24356.78;5090927;28;20594;-64
2022/10/28 09:26:11;;;;;;;3.88;2.35;;;;;;;19.59;nan;-24362.19;5080847;28;20309;-67
2022/10/28 09:28:55;;;;;;;5.95;2.50;;;;;;;19.50;nan;-24359.69;5072483;28;20198;-67
2022/10/28 09:31:39;;;;;;;4.30;2.25;;;;;;;19.30;nan;-24354.13;5072069;28;20625;-66
2022/10/28 09:34:13;;;;;;;2.70;2.20;;;;;;;19.66;nan;-24364.00;5071729;28;20174;-66
2022/10/28 09:36:44;;;;;;;4.85;2.38;;;;;;;19.65;nan;-24363.88;5071161;28;20713;-64
2022/10/28 09:39:18;;;;;;;4.60;2.60;;;;;;;19.57;nan;-24361.50;5072190;28;20215;-67
2022/10/28 09:41:47;;;;;;;4.35;2.58;;;;;;;19.96;nan;-24372.22;5072493;28;20174;-64
2022/10/28 09:44:42;;;;;;;2.88;2.20;;;;;;;19.80;nan;-24368.03;5071943;28;20166;-67
2022/10/28 09:47:16;;;;;;;5.57;2.72;;;;;;;19.55;nan;-24361.09;5067035;28;20226;-62
2022/10/28 09:49:42;;;;;;;4.57;2.53;;;;;;;18.72;nan;-24338.13;5071129;28;20202;-65
2022/10/28 09:52:07;;;;;;;3.42;2.45;;;;;;;19.48;nan;-24359.00;5071548;28;20170;-67
2022/10/28 09:54:36;;;;;;;5.32;2.80;;;;;;;19.45;nan;-24358.16;5071508;28;20256;-63
2022/10/28 09:57:03;;;;;;;5.15;2.58;;;;;;;18.05;nan;-24319.88;5071150;28;20649;-64
2022/10/28 09:59:29;;;;;;;3.55;2.22;;;;;;;19.88;nan;-24369.97;5070427;28;20751;-63
2022/10/28 10:01:54;;;;;;;3.65;2.28;;;;;;;20.30;nan;-24381.66;5068566;28;20217;-63
2022/10/28 10:04:22;;;;;;;4.05;2.50;;;;;;;20.53;nan;-24388.03;5070918;28;20170;-65
2022/10/28 10:07:02;;;;;;;5.18;2.53;;;;;;;20.33;nan;-24382.34;5069649;28;20266;-64
2022/10/28 10:09:30;;;;;;;4.45;2.65;;;;;;;20.53;nan;-24388.03;5070656;28;20626;-62
2022/10/28 10:12:08;;;;;;;5.22;2.53;;;;;;;20.50;nan;-24387.06;5070910;28;20173;-64
2022/10/28 10:14:49;;;;;;;3.88;2.33;;;;;;;20.03;nan;-24374.16;5070668;28;20594;-64
2022/10/28 10:17:19;;;;;;;3.40;2.13;;;;;;;19.94;nan;-24371.78;5071234;28;20652;-63
2022/10/28 10:20:05;;;;;;;3.30;2.15;;;;;;;20.62;nan;-24390.53;5071066;28;20173;-64
2022/10/28 10:22:31;;;;;;;4.07;2.45;;;;;;;20.75;nan;-24393.88;5070326;28;20170;-66
2022/10/28 10:24:57;;;;;;;6.50;2.45;;;;;;;21.00;nan;-24400.81;5070923;28;20225;-64
2022/10/28 10:27:25;;;;;;;2.85;2.38;;;;;;;17.77;nan;-24311.91;5069782;28;20166;-61
2022/10/28 10:29:52;;;;;;;2.65;2.30;;;;;;;20.75;nan;-24394.00;5072927;28;20694;-66
2022/10/28 10:32:17;;;;;;;3.80;2.10;;;;;;;20.99;nan;-24400.53;5075086;28;20261;-65
2022/10/28 10:34:43;;;;;;;4.32;2.33;;;;;;;;;;5074488;28;20623;-64
2022/10/28 10:37:17;;;;;;;2.97;2.28;;;;;;;20.50;nan;-24387.06;5074256;28;20178;-67
2022/10/28 10:39:43;;;;;;;6.72;2.40;;;;;;;20.60;nan;-24389.84;5072926;28;20272;-66
2022/10/28 10:42:19;;;;;;;4.88;2.28;;;;;;;20.90;nan;-24398.16;5074461;28;20304;-64
2022/10/28 10:44:45;;;;;;;2.90;1.92;;;;;;;20.99;nan;-24400.66;5074355;28;20166;-64
2022/10/28 10:47:12;;;;;;;5.90;2.13;;;;;;;21.51;nan;-24414.94;5073938;28;20166;-66
2022/10/28 10:49:37;;;;;;;3.17;1.83;;;;;;;21.32;nan;-24409.69;5074278;28;20208;-65
2022/10/28 10:52:17;;;;;;;3.08;2.25;;;;;;;21.67;nan;-24419.25;5074646;28;20170;-66
2022/10/28 10:54:56;;;;;;;3.20;2.15;;;;;;;21.91;nan;-24425.91;5074999;28;20173;-64
2022/10/28 10:57:24;;;;;;;5.13;2.45;;;;;;;21.96;nan;-24427.16;5074909;28;20170;-64
2022/10/28 10:59:52;;;;;;;3.75;2.17;;;;;;;21.90;nan;-24425.63;5074568;28;20177;-67
2022/10/28 11:02:23;;;;;;;2.75;1.80;;;;;;;21.97;nan;-24427.56;5074575;28;20173;-65
2022/10/28 11:04:50;;;;;;;3.38;1.70;;;;;;;;;;5074390;28;20275;-63
2022/10/28 11:07:16;;;;;;;2.35;2.05;;;;;;;21.07;nan;-24402.88;5074755;28;20173;-65
2022/10/28 11:09:45;;;;;;;2.83;2.10;;;;;;;21.86;nan;-24424.38;5074166;28;20220;-67
2022/10/28 11:12:25;;;;;;;4.13;2.42;;;;;;;21.99;nan;-24428.13;5074479;28;20670;-67
2022/10/28 11:15:00;;;;;;;3.13;2.03;;;;;;;21.98;nan;-24427.84;5074278;28;20613;-63
2022/10/28 11:17:28;;;;;;;2.88;1.90;;;;;;;21.80;nan;-24422.84;5074617;28;20219;-67
2022/10/28 11:19:56;;;;;;;2.40;1.80;;;;;;;21.97;nan;-24427.41;5074606;28;20292;-64
2022/10/28 11:22:34;;;;;;;1.77;1.67;;;;;;;21.64;nan;-24418.41;5074843;28;20177;-61
2022/10/28 11:25:29;;;;;;;2.35;1.70;;;;;;;21.31;nan;-24409.28;5074211;28;20228;-65
2022/10/28 11:28:04;;;;;;;3.65;1.65;;;;;;;21.56;nan;-24416.19;5063541;28;20645;-62
2022/10/28 11:30:47;;;;;;;2.33;1.73;;;;;;;21.86;nan;-24424.50;5074102;28;20197;-64
2022/10/28 11:33:30;;;;;;;2.65;1.90;;;;;;;21.65;nan;-24418.69;5073572;28;20177;-63
2022/10/28 11:36:09;;;;;;;2.35;1.67;;;;;;;22.18;nan;-24433.09;5074512;28;20174;-65
2022/10/28 11:38:52;;;;;;;5.82;1.90;;;;;;;22.19;nan;-24433.50;5074060;28;20617;-66
2022/10/28 11:41:26;;;;;;;2.97;2.10;;;;;;;21.66;nan;-24418.97;5072648;28;20181;-65
2022/10/28 11:43:54;;;;;;;4.97;3.47;;;;;;;21.67;nan;-24419.25;5073617;28;20170;-66
2022/10/28 11:46:44;;;;;;;4.25;1.95;;;;;;;21.70;nan;-24420.06;5073959;28;20307;-65
2022/10/28 11:49:31;;;;;;;3.35;2.05;;;;;;;21.45;nan;-24413.16;5073371;28;20272;-63
2022/10/28 11:52:05;;;;;;;2.65;1.98;;;;;;;21.65;nan;-24418.56;5073508;28;20191;-63
2022/10/28 11:54:37;;;;;;;2.97;2.10;;;;;;;21.64;nan;-24418.41;5073737;28;20223;-63
2022/10/28 11:57:10;;;;;;;2.25;1.73;;;;;;;21.41;nan;-24412.19;5073873;28;20265;-64
2022/10/28 11:59:47;;;;;;;2.95;1.70;;;;;;;21.35;nan;-24410.50;5073754;28;20166;-65